Wetterdaten: Woche 29.06.09 - 05.07.09 (KW27)
Datum Zeit Temp. Innen Temp. Aussen UV X Diff Temp. Feuchte Inne Feuchte Auss Sonnenschein Luftdruck Regen ab 0,1 Wind Sonnenschein Windben
29.06.2009 00:00 24,4 C 20,1 C 0,0 UV-I 0,0 C 66 % 84 % 0 % 1017,1 hPa 0,0 l/m 0,0 km/h (0 Bft) 0,00 h 0,0 km/h (0 Bft)
29.06.2009 01:00 24,1 C 19,2 C 0,0 UV-I 0,0 C 67 % 87 % 0 % 1017,0 hPa 0,0 l/m 0,0 km/h (0 Bft) 0,00 h 0,0 km/h (0 Bft)
29.06.2009 02:00 23,9 C 18,5 C 0,0 UV-I 0,0 C 67 % 89 % 0 % 1017,0 hPa 0,0 l/m 0,0 km/h (0 Bft) 0,00 h 0,0 km/h (0 Bft)
29.06.2009 03:00 23,7 C 18,0 C 0,0 UV-I 0,0 C 67 % 90 % 0 % 1017,1 hPa 0,0 l/m 0,0 km/h (0 Bft) 0,00 h 0,0 km/h (0 Bft)
29.06.2009 04:00 23,4 C 17,6 C 0,0 UV-I 0,0 C 68 % 91 % 0 % 1017,1 hPa 0,0 l/m 0,0 km/h (0 Bft) 0,00 h 0,0 km/h (0 Bft)
29.06.2009 05:00 23,2 C 17,1 C 0,0 UV-I 0,0 C 68 % 92 % 0 % 1017,3 hPa 0,0 l/m 0,0 km/h (0 Bft) 0,00 h 0,0 km/h (0 Bft)
29.06.2009 06:00 23,1 C 16,9 C 0,4 UV-I 0,0 C 68 % 92 % 0 % 1017,4 hPa 0,0 l/m 0,0 km/h (0 Bft) 0,00 h 0,0 km/h (0 Bft)
29.06.2009 07:00 23,1 C 17,6 C 1,2 UV-I 0,2 C 69 % 94 % 6 % 1017,9 hPa 0,0 l/m 0,0 km/h (0 Bft) 0,00 h 0,1 km/h (0 Bft)
29.06.2009 08:00 23,3 C 18,9 C 2,0 UV-I 0,7 C 70 % 94 % 20 % 1018,0 hPa 0,0 l/m 0,4 km/h (0 Bft) 0,00 h 1,0 km/h (0 Bft)
29.06.2009 09:00 23,5 C 20,8 C 2,4 UV-I 2,3 C 70 % 89 % 59 % 1018,1 hPa 0,0 l/m 0,8 km/h (0 Bft) 0,20 h 1,6 km/h (1 Bft)
29.06.2009 10:00 23,8 C 23,2 C 4,3 UV-I 6,4 C 69 % 78 % 100 % 1018,6 hPa 0,0 l/m 1,3 km/h (1 Bft) 0,87 h 2,8 km/h (1 Bft)
29.06.2009 11:00 24,1 C 25,4 C 7,2 UV-I 5,4 C 69 % 67 % 100 % 1018,9 hPa 0,0 l/m 2,7 km/h (1 Bft) 0,83 h 4,2 km/h (1 Bft)
29.06.2009 12:00 24,4 C 27,0 C 7,2 UV-I 5,1 C 68 % 61 % 100 % 1019,0 hPa 0,0 l/m 3,2 km/h (1 Bft) 0,47 h 6,4 km/h (2 Bft)
29.06.2009 13:00 24,8 C 28,5 C 7,6 UV-I 4,5 C 66 % 55 % 100 % 1019,0 hPa 0,0 l/m 3,3 km/h (1 Bft) 0,50 h 4,8 km/h (1 Bft)
29.06.2009 14:00 25,4 C 29,9 C 7,4 UV-I 4,5 C 64 % 49 % 100 % 1019,1 hPa 0,0 l/m 2,3 km/h (1 Bft) 0,72 h 4,6 km/h (1 Bft)
29.06.2009 15:00 26,1 C 30,4 C 6,2 UV-I 3,4 C 62 % 46 % 90 % 1019,3 hPa 0,0 l/m 2,0 km/h (1 Bft) 0,67 h 3,1 km/h (1 Bft)
29.06.2009 16:00 26,9 C 30,9 C 6,6 UV-I 4,5 C 59 % 45 % 100 % 1019,0 hPa 0,0 l/m 2,3 km/h (1 Bft) 0,93 h 4,7 km/h (1 Bft)
29.06.2009 17:00 27,7 C 30,8 C 4,1 UV-I 3,5 C 56 % 43 % 94 % 1018,9 hPa 0,0 l/m 2,4 km/h (1 Bft) 0,83 h 3,2 km/h (1 Bft)
29.06.2009 18:00 27,9 C 30,1 C 2,8 UV-I 3,4 C 55 % 44 % 92 % 1018,9 hPa 0,0 l/m 1,8 km/h (1 Bft) 0,80 h 2,3 km/h (1 Bft)
29.06.2009 19:00 27,4 C 28,4 C 1,6 UV-I 0,1 C 55 % 48 % 3 % 1019,2 hPa 0,0 l/m 2,5 km/h (1 Bft) 0,00 h 3,7 km/h (1 Bft)
29.06.2009 20:00 26,9 C 27,1 C 0,7 UV-I 0,0 C 55 % 51 % 0 % 1019,2 hPa 0,0 l/m 1,6 km/h (1 Bft) 0,00 h 2,3 km/h (1 Bft)
29.06.2009 21:00 26,5 C 25,4 C 0,1 UV-I 0,0 C 57 % 63 % 0 % 1019,4 hPa 0,0 l/m 1,5 km/h (1 Bft) 0,00 h 2,5 km/h (1 Bft)
29.06.2009 22:00 26,1 C 23,8 C 0,0 UV-I 0,0 C 59 % 69 % 0 % 1020,1 hPa 0,0 l/m 1,0 km/h (0 Bft) 0,00 h 1,2 km/h (1 Bft)
29.06.2009 23:00 25,6 C 22,5 C 0,0 UV-I 0,0 C 61 % 74 % 0 % 1020,2 hPa 0,0 l/m 0,2 km/h (0 Bft) 0,00 h 0,3 km/h (0 Bft)
30.06.2009 00:00 25,2 C 21,4 C 0,0 UV-I 0,0 C 62 % 78 % 0 % 1020,2 hPa 0,0 l/m 0,1 km/h (0 Bft) 0,00 h 0,3 km/h (0 Bft)
30.06.2009 01:00 24,9 C 20,5 C 0,0 UV-I 0,0 C 63 % 82 % 0 % 1020,4 hPa 0,0 l/m 0,1 km/h (0 Bft) 0,00 h 0,1 km/h (0 Bft)
30.06.2009 02:00 24,7 C 19,8 C 0,0 UV-I 0,0 C 64 % 85 % 0 % 1020,2 hPa 0,0 l/m 0,0 km/h (0 Bft) 0,00 h 0,3 km/h (0 Bft)
30.06.2009 03:00 24,5 C 19,2 C 0,0 UV-I 0,0 C 65 % 86 % 0 % 1020,4 hPa 0,0 l/m 0,0 km/h (0 Bft) 0,00 h 0,0 km/h (0 Bft)
30.06.2009 04:00 24,2 C 18,5 C 0,0 UV-I 0,0 C 66 % 88 % 0 % 1020,0 hPa 0,0 l/m 0,0 km/h (0 Bft) 0,00 h 0,0 km/h (0 Bft)
30.06.2009 05:00 24,0 C 18,0 C 0,0 UV-I 0,0 C 66 % 90 % 0 % 1019,9 hPa 0,0 l/m 0,0 km/h (0 Bft) 0,00 h 0,0 km/h (0 Bft)
30.06.2009 06:00 23,8 C 17,8 C 0,3 UV-I 0,0 C 66 % 91 % 0 % 1020,1 hPa 0,0 l/m 0,0 km/h (0 Bft) 0,00 h 0,1 km/h (0 Bft)
30.06.2009 07:00 23,8 C 18,3 C 0,9 UV-I 0,1 C 67 % 92 % 2 % 1020,3 hPa 0,0 l/m 0,5 km/h (0 Bft) 0,00 h 0,8 km/h (0 Bft)
30.06.2009 08:00 23,9 C 19,5 C 1,6 UV-I 0,9 C 68 % 90 % 26 % 1020,5 hPa 0,0 l/m 0,7 km/h (0 Bft) 0,00 h 1,6 km/h (1 Bft)
30.06.2009 09:00 24,2 C 21,3 C 2,3 UV-I 2,4 C 68 % 86 % 62 % 1020,9 hPa 0,0 l/m 0,9 km/h (0 Bft) 0,20 h 1,0 km/h (0 Bft)
30.06.2009 10:00 24,4 C 23,6 C 3,7 UV-I 4,9 C 68 % 77 % 100 % 1021,1 hPa 0,0 l/m 1,7 km/h (1 Bft) 1,00 h 3,3 km/h (1 Bft)
30.06.2009 11:00 24,7 C 26,0 C 5,6 UV-I 4,7 C 67 % 65 % 96 % 1021,3 hPa 0,0 l/m 3,4 km/h (1 Bft) 0,93 h 4,5 km/h (1 Bft)
30.06.2009 12:00 24,9 C 27,1 C 5,3 UV-I 3,3 C 64 % 55 % 87 % 1021,2 hPa 0,0 l/m 2,9 km/h (1 Bft) 0,60 h 4,0 km/h (1 Bft)
30.06.2009 13:00 25,2 C 27,9 C 5,4 UV-I 3,5 C 62 % 53 % 90 % 1021,4 hPa 0,0 l/m 2,8 km/h (1 Bft) 0,67 h 3,4 km/h (1 Bft)
30.06.2009 14:00 25,7 C 29,7 C 7,3 UV-I 5,1 C 61 % 49 % 100 % 1021,5 hPa 0,0 l/m 3,1 km/h (1 Bft) 1,00 h 4,2 km/h (1 Bft)
30.06.2009 15:00 26,6 C 30,8 C 6,6 UV-I 4,4 C 58 % 46 % 100 % 1021,7 hPa 0,0 l/m 3,8 km/h (1 Bft) 0,97 h 5,3 km/h (1 Bft)
30.06.2009 16:00 27,4 C 30,5 C 4,9 UV-I 3,0 C 56 % 46 % 80 % 1021,5 hPa 0,0 l/m 2,9 km/h (1 Bft) 0,57 h 4,1 km/h (1 Bft)
30.06.2009 17:00 27,6 C 29,1 C 3,0 UV-I 1,1 C 56 % 49 % 32 % 1021,5 hPa 0,0 l/m 4,0 km/h (1 Bft) 0,07 h 6,2 km/h (2 Bft)
30.06.2009 18:00 27,6 C 29,0 C 3,0 UV-I 3,5 C 55 % 49 % 94 % 1021,2 hPa 0,0 l/m 4,4 km/h (1 Bft) 0,77 h 6,6 km/h (2 Bft)
30.06.2009 19:00 27,4 C 28,2 C 1,7 UV-I 0,4 C 55 % 50 % 10 % 1021,3 hPa 0,0 l/m 3,6 km/h (1 Bft) 0,00 h 4,9 km/h (1 Bft)
30.06.2009 20:00 27,1 C 27,2 C 0,7 UV-I 0,0 C 55 % 55 % 0 % 1021,2 hPa 0,0 l/m 3,1 km/h (1 Bft) 0,00 h 4,5 km/h (1 Bft)
30.06.2009 21:00 26,8 C 25,8 C 0,1 UV-I 0,0 C 56 % 59 % 0 % 1021,4 hPa 0,0 l/m 1,5 km/h (1 Bft) 0,00 h 2,0 km/h (1 Bft)
30.06.2009 22:00 26,4 C 24,3 C 0,0 UV-I 0,0 C 58 % 64 % 0 % 1022,0 hPa 0,0 l/m 0,1 km/h (0 Bft) 0,00 h 0,1 km/h (0 Bft)
30.06.2009 23:00 25,9 C 22,9 C 0,0 UV-I 0,0 C 59 % 69 % 0 % 1022,5 hPa 0,0 l/m 0,1 km/h (0 Bft) 0,00 h 0,2 km/h (0 Bft)
01.07.2009 00:00 25,6 C 21,6 C 0,0 UV-I 0,0 C 60 % 72 % 0 % 1022,8 hPa 0,0 l/m 0,1 km/h (0 Bft) 0,00 h 0,2 km/h (0 Bft)
01.07.2009 01:00 25,2 C 20,5 C 0,0 UV-I 0,0 C 60 % 75 % 0 % 1022,7 hPa 0,0 l/m 0,0 km/h (0 Bft) 0,00 h 0,0 km/h (0 Bft)
01.07.2009 02:00 25,0 C 19,5 C 0,0 UV-I 0,0 C 61 % 79 % 0 % 1022,8 hPa 0,0 l/m 0,0 km/h (0 Bft) 0,00 h 0,1 km/h (0 Bft)
01.07.2009 03:00 24,7 C 18,8 C 0,0 UV-I 0,0 C 61 % 82 % 0 % 1022,5 hPa 0,0 l/m 0,0 km/h (0 Bft) 0,00 h 0,3 km/h (0 Bft)
01.07.2009 04:00 24,5 C 18,3 C 0,0 UV-I 0,0 C 62 % 86 % 0 % 1022,1 hPa 0,0 l/m 0,0 km/h (0 Bft) 0,00 h 0,3 km/h (0 Bft)
01.07.2009 05:00 24,2 C 17,8 C 0,0 UV-I 0,0 C 63 % 88 % 0 % 1021,8 hPa 0,0 l/m 0,0 km/h (0 Bft) 0,00 h 0,1 km/h (0 Bft)
01.07.2009 06:00 24,0 C 17,6 C 0,3 UV-I 0,0 C 64 % 90 % 0 % 1022,1 hPa 0,0 l/m 0,1 km/h (0 Bft) 0,00 h 0,3 km/h (0 Bft)
01.07.2009 07:00 24,0 C 18,1 C 0,9 UV-I 0,1 C 64 % 90 % 2 % 1022,1 hPa 0,0 l/m 1,1 km/h (0 Bft) 0,00 h 1,8 km/h (1 Bft)
01.07.2009 08:00 23,9 C 19,3 C 1,5 UV-I 0,7 C 66 % 88 % 20 % 1022,4 hPa 0,0 l/m 1,4 km/h (1 Bft) 0,00 h 2,0 km/h (1 Bft)
01.07.2009 09:00 24,2 C 21,0 C 2,5 UV-I 1,6 C 67 % 84 % 44 % 1022,7 hPa 0,0 l/m 2,7 km/h (1 Bft) 0,13 h 4,0 km/h (1 Bft)
01.07.2009 10:00 24,5 C 23,1 C 5,7 UV-I 5,6 C 67 % 78 % 100 % 1022,9 hPa 0,0 l/m 2,6 km/h (1 Bft) 1,00 h 3,8 km/h (1 Bft)
01.07.2009 11:00 24,8 C 25,6 C 8,4 UV-I 5,7 C 67 % 70 % 100 % 1022,8 hPa 0,0 l/m 3,0 km/h (1 Bft) 1,00 h 5,0 km/h (1 Bft)
01.07.2009 12:00 25,1 C 27,6 C 7,8 UV-I 4,9 C 67 % 62 % 100 % 1023,1 hPa 0,0 l/m 4,3 km/h (1 Bft) 1,00 h 6,6 km/h (2 Bft)
01.07.2009 13:00 25,5 C 28,9 C 7,6 UV-I 4,5 C 65 % 56 % 100 % 1022,8 hPa 0,0 l/m 4,5 km/h (1 Bft) 1,00 h 6,0 km/h (2 Bft)
01.07.2009 14:00 26,1 C 29,3 C 6,5 UV-I 3,2 C 63 % 52 % 88 % 1022,8 hPa 0,0 l/m 4,4 km/h (1 Bft) 0,70 h 6,5 km/h (2 Bft)
01.07.2009 15:00 26,6 C 29,5 C 6,3 UV-I 3,2 C 61 % 51 % 87 % 1022,8 hPa 0,0 l/m 4,4 km/h (1 Bft) 0,73 h 5,5 km/h (1 Bft)
01.07.2009 16:00 27,4 C 30,1 C 6,1 UV-I 3,6 C 58 % 48 % 100 % 1022,6 hPa 0,0 l/m 4,5 km/h (1 Bft) 0,97 h 6,2 km/h (2 Bft)
01.07.2009 17:00 28,1 C 30,1 C 4,1 UV-I 3,2 C 55 % 46 % 91 % 1022,2 hPa 0,0 l/m 4,5 km/h (1 Bft) 1,00 h 5,7 km/h (1 Bft)
01.07.2009 18:00 28,3 C 29,3 C 2,8 UV-I 2,7 C 53 % 46 % 78 % 1021,9 hPa 0,0 l/m 4,2 km/h (1 Bft) 0,40 h 5,6 km/h (1 Bft)
01.07.2009 19:00 27,9 C 28,1 C 1,7 UV-I 0,1 C 53 % 49 % 2 % 1021,7 hPa 0,0 l/m 3,6 km/h (1 Bft) 0,00 h 5,0 km/h (1 Bft)
01.07.2009 20:00 27,4 C 27,1 C 0,7 UV-I 0,0 C 54 % 52 % 0 % 1021,8 hPa 0,0 l/m 2,3 km/h (1 Bft) 0,00 h 3,4 km/h (1 Bft)
01.07.2009 21:00 27,0 C 25,7 C 0,1 UV-I 0,0 C 55 % 57 % 0 % 1021,6 hPa 0,0 l/m 0,1 km/h (0 Bft) 0,00 h 0,2 km/h (0 Bft)
01.07.2009 22:00 26,6 C 24,1 C 0,0 UV-I 0,0 C 56 % 63 % 0 % 1021,7 hPa 0,0 l/m 0,0 km/h (0 Bft) 0,00 h 0,0 km/h (0 Bft)
01.07.2009 23:00 26,1 C 22,3 C 0,0 UV-I 0,0 C 58 % 69 % 0 % 1022,1 hPa 0,0 l/m 0,0 km/h (0 Bft) 0,00 h 0,0 km/h (0 Bft)
02.07.2009 00:00 25,7 C 21,1 C 0,0 UV-I 0,0 C 59 % 73 % 0 % 1021,9 hPa 0,0 l/m 0,0 km/h (0 Bft) 0,00 h 0,0 km/h (0 Bft)
02.07.2009 01:00 25,4 C 20,1 C 0,0 UV-I 0,0 C 60 % 76 % 0 % 1021,7 hPa 0,0 l/m 0,0 km/h (0 Bft) 0,00 h 0,0 km/h (0 Bft)
02.07.2009 02:00 25,2 C 19,6 C 0,0 UV-I 0,0 C 61 % 81 % 0 % 1021,4 hPa 0,0 l/m 0,0 km/h (0 Bft) 0,00 h 0,0 km/h (0 Bft)
02.07.2009 03:00 25,0 C 19,2 C 0,0 UV-I 0,0 C 62 % 84 % 0 % 1021,1 hPa 0,0 l/m 0,0 km/h (0 Bft) 0,00 h 0,0 km/h (0 Bft)
02.07.2009 04:00 24,8 C 18,9 C 0,0 UV-I 0,0 C 62 % 84 % 0 % 1020,7 hPa 0,0 l/m 0,0 km/h (0 Bft) 0,00 h 0,0 km/h (0 Bft)
02.07.2009 05:00 24,7 C 18,3 C 0,0 UV-I 0,0 C 62 % 86 % 0 % 1020,4 hPa 0,0 l/m 0,0 km/h (0 Bft) 0,00 h 0,0 km/h (0 Bft)
02.07.2009 06:00 24,4 C 18,1 C 0,4 UV-I 0,0 C 63 % 87 % 0 % 1020,3 hPa 0,0 l/m 0,0 km/h (0 Bft) 0,00 h 0,0 km/h (0 Bft)
02.07.2009 07:00 24,4 C 18,9 C 1,1 UV-I 0,5 C 64 % 88 % 15 % 1020,3 hPa 0,0 l/m 0,2 km/h (0 Bft) 0,00 h 0,7 km/h (0 Bft)
02.07.2009 08:00 24,6 C 20,6 C 1,8 UV-I 1,2 C 64 % 86 % 36 % 1020,2 hPa 0,0 l/m 0,4 km/h (0 Bft) 0,00 h 0,7 km/h (0 Bft)
02.07.2009 09:00 24,9 C 22,9 C 2,5 UV-I 2,2 C 65 % 80 % 59 % 1020,6 hPa 0,0 l/m 0,3 km/h (0 Bft) 0,10 h 0,8 km/h (0 Bft)
02.07.2009 10:00 25,2 C 26,0 C 6,5 UV-I 6,6 C 65 % 69 % 100 % 1020,1 hPa 0,0 l/m 1,5 km/h (1 Bft) 0,77 h 3,6 km/h (1 Bft)
02.07.2009 11:00 25,4 C 29,1 C 9,6 UV-I 5,7 C 64 % 56 % 100 % 1019,9 hPa 0,0 l/m 1,2 km/h (1 Bft) 0,75 h 2,2 km/h (1 Bft)
02.07.2009 12:00 25,7 C 30,4 C 6,8 UV-I 4,1 C 63 % 51 % 97 % 1019,7 hPa 0,0 l/m 1,5 km/h (1 Bft) 0,93 h 2,8 km/h (1 Bft)
02.07.2009 13:00 26,0 C 30,3 C 4,4 UV-I 1,8 C 61 % 49 % 51 % 1019,3 hPa 0,0 l/m 1,9 km/h (1 Bft) 0,20 h 2,8 km/h (1 Bft)
02.07.2009 14:00 26,4 C 31,3 C 6,1 UV-I 4,0 C 60 % 48 % 81 % 1018,9 hPa 0,0 l/m 1,8 km/h (1 Bft) 0,70 h 2,7 km/h (1 Bft)
02.07.2009 15:00 26,9 C 31,3 C 4,5 UV-I 2,1 C 59 % 47 % 58 % 1018,1 hPa 0,0 l/m 1,9 km/h (1 Bft) 0,33 h 3,4 km/h (1 Bft)
02.07.2009 16:00 27,4 C 31,8 C 5,6 UV-I 3,7 C 58 % 46 % 91 % 1017,9 hPa 0,0 l/m 3,8 km/h (1 Bft) 0,77 h 5,7 km/h (1 Bft)
02.07.2009 17:00 28,3 C 32,3 C 4,1 UV-I 3,1 C 56 % 46 % 78 % 1017,1 hPa 0,0 l/m 3,7 km/h (1 Bft) 0,70 h 4,3 km/h (1 Bft)
02.07.2009 18:00 28,5 C 30,5 C 1,9 UV-I 0,4 C 56 % 50 % 12 % 1017,2 hPa 0,0 l/m 1,9 km/h (1 Bft) 0,00 h 2,8 km/h (1 Bft)
02.07.2009 19:00 28,1 C 27,4 C 0,5 UV-I 0,0 C 57 % 58 % 0 % 1017,0 hPa 0,0 l/m 0,8 km/h (0 Bft) 0,00 h 1,5 km/h (1 Bft)
02.07.2009 20:00 27,6 C 25,4 C 0,0 UV-I 0,0 C 58 % 66 % 0 % 1016,7 hPa 0,0 l/m 0,2 km/h (0 Bft) 0,00 h 0,3 km/h (0 Bft)
02.07.2009 21:00 27,1 C 24,7 C 0,0 UV-I 0,0 C 59 % 69 % 0 % 1016,7 hPa 0,0 l/m 0,0 km/h (0 Bft) 0,00 h 0,1 km/h (0 Bft)
02.07.2009 22:00 26,7 C 24,0 C 0,0 UV-I 0,0 C 60 % 72 % 0 % 1016,6 hPa 0,0 l/m 0,0 km/h (0 Bft) 0,00 h 0,0 km/h (0 Bft)
02.07.2009 23:00 26,4 C 23,4 C 0,0 UV-I 0,0 C 62 % 74 % 0 % 1016,5 hPa 0,0 l/m 0,0 km/h (0 Bft) 0,00 h 0,0 km/h (0 Bft)
03.07.2009 00:00 26,2 C 22,9 C 0,0 UV-I 0,0 C 62 % 76 % 0 % 1015,8 hPa 0,0 l/m 0,0 km/h (0 Bft) 0,00 h 0,0 km/h (0 Bft)
03.07.2009 01:00 26,0 C 21,9 C 0,0 UV-I 0,0 C 63 % 80 % 0 % 1015,3 hPa 0,0 l/m 0,0 km/h (0 Bft) 0,00 h 0,0 km/h (0 Bft)
03.07.2009 02:00 25,7 C 21,0 C 0,0 UV-I 0,0 C 64 % 82 % 0 % 1014,9 hPa 0,0 l/m 0,0 km/h (0 Bft) 0,00 h 0,0 km/h (0 Bft)
03.07.2009 03:00 25,5 C 20,3 C 0,0 UV-I 0,0 C 64 % 84 % 0 % 1014,8 hPa 0,0 l/m 0,0 km/h (0 Bft) 0,00 h 0,0 km/h (0 Bft)
03.07.2009 04:00 25,3 C 19,8 C 0,0 UV-I 0,0 C 65 % 86 % 0 % 1014,4 hPa 0,0 l/m 0,0 km/h (0 Bft) 0,00 h 0,0 km/h (0 Bft)
03.07.2009 05:00 25,1 C 19,5 C 0,0 UV-I 0,0 C 65 % 87 % 0 % 1014,3 hPa 0,0 l/m 0,0 km/h (0 Bft) 0,00 h 0,0 km/h (0 Bft)
03.07.2009 06:00 25,0 C 19,3 C 0,4 UV-I 0,0 C 66 % 88 % 0 % 1013,9 hPa 0,0 l/m 0,0 km/h (0 Bft) 0,00 h 0,0 km/h (0 Bft)
03.07.2009 07:00 25,0 C 20,0 C 1,0 UV-I 0,7 C 66 % 89 % 20 % 1013,9 hPa 0,0 l/m 1,1 km/h (0 Bft) 0,00 h 2,4 km/h (1 Bft)
03.07.2009 08:00 25,1 C 21,6 C 1,7 UV-I 1,3 C 66 % 85 % 38 % 1013,7 hPa 0,0 l/m 2,1 km/h (1 Bft) 0,00 h 3,5 km/h (1 Bft)
03.07.2009 09:00 25,4 C 23,5 C 2,6 UV-I 1,8 C 65 % 79 % 52 % 1013,8 hPa 0,0 l/m 3,0 km/h (1 Bft) 0,13 h 4,9 km/h (1 Bft)
03.07.2009 10:00 25,7 C 26,1 C 6,3 UV-I 4,8 C 65 % 72 % 100 % 1013,7 hPa 0,0 l/m 1,9 km/h (1 Bft) 0,97 h 2,8 km/h (1 Bft)
03.07.2009 11:00 25,9 C 29,4 C 8,6 UV-I 4,6 C 65 % 62 % 94 % 1013,4 hPa 0,0 l/m 1,2 km/h (1 Bft) 0,80 h 1,9 km/h (1 Bft)
03.07.2009 12:00 26,2 C 30,8 C 4,8 UV-I 2,4 C 65 % 54 % 61 % 1013,3 hPa 0,0 l/m 1,0 km/h (0 Bft) 0,50 h 1,8 km/h (1 Bft)
03.07.2009 13:00 26,4 C 29,7 C 1,7 UV-I 0,0 C 63 % 54 % 0 % 1013,0 hPa 0,3 l/m 1,9 km/h (1 Bft) 0,00 h 4,5 km/h (1 Bft)
03.07.2009 14:00 26,4 C 23,7 C 0,5 UV-I 0,0 C 64 % 71 % 0 % 1013,4 hPa 0,4 l/m 1,8 km/h (1 Bft) 0,00 h 2,7 km/h (1 Bft)
03.07.2009 15:00 26,3 C 23,4 C 4,8 UV-I 2,6 C 65 % 84 % 63 % 1012,8 hPa 5,1 l/m 1,2 km/h (1 Bft) 0,57 h 2,0 km/h (1 Bft)
03.07.2009 16:00 27,1 C 27,3 C 4,7 UV-I 3,9 C 64 % 67 % 90 % 1013,0 hPa 0,0 l/m 1,9 km/h (1 Bft) 0,67 h 2,8 km/h (1 Bft)
03.07.2009 17:00 27,4 C 25,8 C 0,6 UV-I 0,4 C 63 % 69 % 10 % 1013,5 hPa 13,1 l/m 5,4 km/h (1 Bft) 0,00 h 9,6 km/h (2 Bft)
03.07.2009 18:00 26,6 C 20,8 C 0,0 UV-I 0,0 C 64 % 84 % 0 % 1015,0 hPa 0,2 l/m 2,3 km/h (1 Bft) 0,00 h 3,0 km/h (1 Bft)
03.07.2009 19:00 25,8 C 19,6 C 0,4 UV-I 0,0 C 66 % 89 % 0 % 1015,0 hPa 0,7 l/m 0,6 km/h (0 Bft) 0,00 h 1,0 km/h (0 Bft)
03.07.2009 20:00 25,5 C 19,9 C 0,8 UV-I 0,0 C 67 % 91 % 0 % 1014,2 hPa 0,0 l/m 0,1 km/h (0 Bft) 0,00 h 0,1 km/h (0 Bft)
03.07.2009 21:00 25,4 C 20,2 C 0,1 UV-I 0,0 C 68 % 91 % 0 % 1013,8 hPa 0,0 l/m 0,1 km/h (0 Bft) 0,00 h 0,1 km/h (0 Bft)
03.07.2009 22:00 25,2 C 19,7 C 0,0 UV-I 0,0 C 68 % 91 % 0 % 1014,2 hPa 0,0 l/m 0,0 km/h (0 Bft) 0,00 h 0,0 km/h (0 Bft)
03.07.2009 23:00 24,9 C 19,2 C 0,0 UV-I 0,0 C 69 % 91 % 0 % 1014,5 hPa 0,0 l/m 0,0 km/h (0 Bft) 0,00 h 0,0 km/h (0 Bft)
04.07.2009 00:00 24,8 C 18,8 C 0,0 UV-I 0,0 C 69 % 92 % 0 % 1014,8 hPa 0,0 l/m 0,1 km/h (0 Bft) 0,00 h 0,0 km/h (0 Bft)
04.07.2009 01:00 24,6 C 18,3 C 0,0 UV-I 0,0 C 69 % 92 % 0 % 1015,0 hPa 0,0 l/m 0,0 km/h (0 Bft) 0,00 h 0,0 km/h (0 Bft)
04.07.2009 02:00 24,4 C 17,8 C 0,0 UV-I 0,0 C 69 % 92 % 0 % 1014,8 hPa 0,0 l/m 0,0 km/h (0 Bft) 0,00 h 0,0 km/h (0 Bft)
04.07.2009 03:00 24,3 C 17,5 C 0,0 UV-I 0,0 C 69 % 92 % 0 % 1014,7 hPa 0,0 l/m 0,0 km/h (0 Bft) 0,00 h 0,0 km/h (0 Bft)
04.07.2009 04:00 24,1 C 16,8 C 0,0 UV-I 0,0 C 68 % 91 % 0 % 1014,5 hPa 0,0 l/m 0,0 km/h (0 Bft) 0,00 h 0,0 km/h (0 Bft)
04.07.2009 05:00 23,8 C 16,0 C 0,0 UV-I 0,0 C 67 % 91 % 0 % 1014,6 hPa 0,0 l/m 0,1 km/h (0 Bft) 0,00 h 0,4 km/h (0 Bft)
04.07.2009 06:00 23,5 C 15,5 C 0,6 UV-I 0,0 C 64 % 91 % 0 % 1014,5 hPa 0,0 l/m 0,3 km/h (0 Bft) 0,00 h 0,6 km/h (0 Bft)
04.07.2009 07:00 23,2 C 15,6 C 1,6 UV-I 0,0 C 64 % 92 % 0 % 1014,3 hPa 0,0 l/m 0,8 km/h (0 Bft) 0,00 h 2,1 km/h (1 Bft)
04.07.2009 08:00 23,2 C 16,6 C 2,3 UV-I 0,1 C 64 % 89 % 2 % 1014,2 hPa 0,0 l/m 2,0 km/h (1 Bft) 0,00 h 3,5 km/h (1 Bft)
04.07.2009 09:00 23,2 C 18,0 C 2,9 UV-I 1,3 C 62 % 82 % 33 % 1014,4 hPa 0,0 l/m 2,6 km/h (1 Bft) 0,13 h 4,1 km/h (1 Bft)
04.07.2009 10:00 23,5 C 20,3 C 6,4 UV-I 6,4 C 62 % 76 % 100 % 1014,8 hPa 0,0 l/m 2,2 km/h (1 Bft) 1,00 h 3,5 km/h (1 Bft)
04.07.2009 11:00 23,8 C 23,2 C 10,9 UV-I 6,1 C 62 % 67 % 100 % 1014,7 hPa 0,0 l/m 2,7 km/h (1 Bft) 1,00 h 4,1 km/h (1 Bft)
04.07.2009 12:00 24,3 C 25,2 C 8,1 UV-I 5,5 C 61 % 60 % 100 % 1014,8 hPa 0,0 l/m 2,8 km/h (1 Bft) 1,00 h 4,1 km/h (1 Bft)
04.07.2009 13:00 24,9 C 26,3 C 6,9 UV-I 4,2 C 60 % 55 % 96 % 1014,8 hPa 0,0 l/m 2,1 km/h (1 Bft) 0,90 h 2,6 km/h (1 Bft)
04.07.2009 14:00 25,5 C 27,3 C 6,7 UV-I 4,3 C 58 % 50 % 96 % 1014,9 hPa 0,0 l/m 2,4 km/h (1 Bft) 0,90 h 3,6 km/h (1 Bft)
04.07.2009 15:00 26,2 C 27,6 C 5,5 UV-I 3,0 C 56 % 49 % 79 % 1014,6 hPa 0,0 l/m 2,4 km/h (1 Bft) 0,43 h 3,7 km/h (1 Bft)
04.07.2009 16:00 26,9 C 27,7 C 5,8 UV-I 3,8 C 54 % 48 % 96 % 1014,2 hPa 0,0 l/m 3,9 km/h (1 Bft) 0,90 h 4,7 km/h (1 Bft)
04.07.2009 17:00 27,6 C 28,2 C 3,5 UV-I 4,0 C 52 % 46 % 100 % 1013,5 hPa 0,0 l/m 2,9 km/h (1 Bft) 1,00 h 4,2 km/h (1 Bft)
04.07.2009 18:00 28,0 C 27,3 C 2,4 UV-I 3,1 C 50 % 47 % 86 % 1013,4 hPa 0,0 l/m 3,0 km/h (1 Bft) 0,77 h 4,5 km/h (1 Bft)
04.07.2009 19:00 27,5 C 25,7 C 1,3 UV-I 0,0 C 51 % 51 % 0 % 1013,5 hPa 0,0 l/m 1,4 km/h (1 Bft) 0,00 h 2,1 km/h (1 Bft)
04.07.2009 20:00 27,0 C 24,8 C 0,6 UV-I 0,0 C 52 % 53 % 0 % 1013,5 hPa 0,0 l/m 0,2 km/h (0 Bft) 0,00 h 0,3 km/h (0 Bft)
04.07.2009 21:00 26,6 C 23,5 C 0,1 UV-I 0,0 C 52 % 58 % 0 % 1013,3 hPa 0,0 l/m 0,0 km/h (0 Bft) 0,00 h 0,0 km/h (0 Bft)
04.07.2009 22:00 26,1 C 21,6 C 0,0 UV-I 0,0 C 54 % 67 % 0 % 1013,6 hPa 0,0 l/m 0,0 km/h (0 Bft) 0,00 h 0,0 km/h (0 Bft)
04.07.2009 23:00 25,6 C 19,9 C 0,0 UV-I 0,0 C 56 % 73 % 0 % 1013,5 hPa 0,0 l/m 0,0 km/h (0 Bft) 0,00 h 0,0 km/h (0 Bft)
05.07.2009 00:00 25,2 C 18,8 C 0,0 UV-I 0,0 C 57 % 77 % 0 % 1013,8 hPa 0,0 l/m 0,0 km/h (0 Bft) 0,00 h 0,0 km/h (0 Bft)
05.07.2009 01:00 24,8 C 17,9 C 0,0 UV-I 0,0 C 58 % 80 % 0 % 1013,8 hPa 0,0 l/m 0,0 km/h (0 Bft) 0,00 h 0,0 km/h (0 Bft)
05.07.2009 02:00 24,5 C 17,1 C 0,0 UV-I 0,0 C 59 % 83 % 0 % 1013,4 hPa 0,0 l/m 0,0 km/h (0 Bft) 0,00 h 0,0 km/h (0 Bft)
05.07.2009 03:00 24,2 C 16,4 C 0,0 UV-I 0,0 C 59 % 86 % 0 % 1013,0 hPa 0,0 l/m 0,0 km/h (0 Bft) 0,00 h 0,0 km/h (0 Bft)
05.07.2009 04:00 23,9 C 15,9 C 0,0 UV-I 0,0 C 60 % 88 % 0 % 1012,6 hPa 0,0 l/m 0,0 km/h (0 Bft) 0,00 h 0,0 km/h (0 Bft)
05.07.2009 05:00 23,7 C 15,5 C 0,0 UV-I 0,0 C 61 % 89 % 0 % 1012,4 hPa 0,0 l/m 0,0 km/h (0 Bft) 0,00 h 0,0 km/h (0 Bft)
05.07.2009 06:00 23,6 C 15,3 C 0,3 UV-I 0,0 C 61 % 90 % 0 % 1012,2 hPa 0,0 l/m 0,0 km/h (0 Bft) 0,00 h 0,1 km/h (0 Bft)
05.07.2009 07:00 23,6 C 16,4 C 0,9 UV-I 0,7 C 62 % 91 % 20 % 1012,0 hPa 0,0 l/m 0,0 km/h (0 Bft) 0,00 h 0,0 km/h (0 Bft)
05.07.2009 08:00 23,7 C 18,0 C 1,6 UV-I 1,5 C 62 % 87 % 42 % 1012,2 hPa 0,0 l/m 0,9 km/h (0 Bft) 0,00 h 2,1 km/h (1 Bft)
05.07.2009 09:00 24,0 C 19,9 C 2,5 UV-I 2,2 C 61 % 81 % 58 % 1012,2 hPa 0,0 l/m 0,8 km/h (0 Bft) 0,10 h 2,3 km/h (1 Bft)
05.07.2009 10:00 24,3 C 22,4 C 6,5 UV-I 6,4 C 61 % 74 % 100 % 1012,3 hPa 0,0 l/m 1,3 km/h (1 Bft) 0,80 h 2,0 km/h (1 Bft)
05.07.2009 11:00 24,6 C 25,9 C 9,6 UV-I 5,5 C 61 % 63 % 100 % 1012,0 hPa 0,0 l/m 1,4 km/h (1 Bft) 0,83 h 2,4 km/h (1 Bft)
05.07.2009 12:00 25,0 C 28,0 C 5,8 UV-I 3,4 C 61 % 53 % 70 % 1012,0 hPa 0,0 l/m 1,1 km/h (0 Bft) 0,40 h 1,8 km/h (1 Bft)
05.07.2009 13:00 25,3 C 28,4 C 6,1 UV-I 3,1 C 59 % 50 % 71 % 1011,5 hPa 0,0 l/m 0,6 km/h (0 Bft) 0,43 h 1,0 km/h (0 Bft)
05.07.2009 14:00 25,8 C 30,2 C 5,7 UV-I 3,0 C 58 % 45 % 80 % 1011,1 hPa 0,0 l/m 1,3 km/h (1 Bft) 0,73 h 2,8 km/h (1 Bft)
05.07.2009 15:00 26,3 C 29,1 C 2,1 UV-I 0,0 C 56 % 45 % 0 % 1010,8 hPa 0,0 l/m 0,1 km/h (0 Bft) 0,00 h 0,5 km/h (0 Bft)
05.07.2009 16:00 26,2 C 28,2 C 3,7 UV-I 1,3 C 56 % 50 % 37 % 1010,3 hPa 0,0 l/m 1,8 km/h (1 Bft) 0,27 h 3,0 km/h (1 Bft)
05.07.2009 17:00 26,7 C 28,9 C 3,0 UV-I 1,4 C 55 % 49 % 40 % 1010,0 hPa 0,0 l/m 2,8 km/h (1 Bft) 0,03 h 5,5 km/h (1 Bft)
05.07.2009 18:00 27,0 C 27,9 C 1,6 UV-I 0,2 C 54 % 51 % 5 % 1009,8 hPa 0,0 l/m 3,1 km/h (1 Bft) 0,00 h 3,8 km/h (1 Bft)
05.07.2009 19:00 26,9 C 26,7 C 1,3 UV-I 0,0 C 55 % 54 % 0 % 1009,6 hPa 0,0 l/m 0,9 km/h (0 Bft) 0,00 h 1,4 km/h (1 Bft)
05.07.2009 20:00 26,6 C 25,2 C 0,3 UV-I 0,0 C 55 % 57 % 0 % 1009,6 hPa 0,0 l/m 1,5 km/h (1 Bft) 0,00 h 2,7 km/h (1 Bft)
05.07.2009 21:00 26,2 C 23,6 C 0,0 UV-I 0,0 C 56 % 59 % 0 % 1010,1 hPa 0,0 l/m 1,9 km/h (1 Bft) 0,00 h 3,1 km/h (1 Bft)
05.07.2009 22:00 25,8 C 22,4 C 0,0 UV-I 0,0 C 57 % 64 % 0 % 1010,3 hPa 0,0 l/m 1,1 km/h (1 Bft) 0,00 h 2,1 km/h (1 Bft)
05.07.2009 23:00 25,6 C 21,5 C 0,0 UV-I 0,0 C 58 % 70 % 0 % 1010,7 hPa 0,0 l/m 1,7 km/h (1 Bft) 0,00 h 2,9 km/h (1 Bft)
Min-Datum _ 29.06.09 05.07.09 29.06.09 29.06.09 04.07.09 29.06.09 29.06.09 05.07.09 - 29.06.09 - 29.06.09
_ Min-Zeit 06:20 06:20 00:00 00:00 17:56 17:58 00:00 19:58 - 00:00 - 00:00
Minimum _ 23,1 C 15,2 C 0,0 UV-I 0,0 C 50 % 42 % 0 % 1009,2 hPa - 0,0 km/h (0 Bft) - 0,0 km/h (0 Bft)
Max-Datum _ 02.07.09 02.07.09 04.07.09 05.07.09 29.06.09 29.06.09 29.06.09 01.07.09 03.07.09 03.07.09 29.06.09 03.07.09
_ Max-Zeit 17:54 17:32 11:12 10:38 08:26 07:54 09:50 11:58 17:32 17:26 09:48 17:24
Maximum _ 28,6 C 32,7 C 12,4 UV-I 7,1 C 71 % 95 % 100 % 1023,2 hPa 13,1 l/m 10,3 km/h
W-SW (2 Bft)
0,03 h 24,3 km/h
W-SW (4 Bft)
Durchschnitt _ 25,5 C 23,3 C 2,3 UV-I 1,5 C 62 % 71 % 33 % 1017,3 hPa #19,7 l/m 1,3 km/h (1 Bft) #42:02 h 2,0 km/h (1 Bft)
© 2012 W. Hausmann